Time;durP1;ratioP1;P1;durP2;ratioP2;P2;SDS_P1;SDS_P2;PMS_P1;PMS_P2;Temp;Humidity;BMP_temperature;BMP_pressure;BME280_temperature;BME280_humidity;BME280_pressure;Samples;Min_cycle;Max_cycle;Signal;HPM_P1;HPM_P2
2021/03/29 00:02:19;;;;;;;6.03;2.30;;;;;;;10.58;60.48;101872.31;5004325;28;20492;-55
2021/03/29 00:04:46;;;;;;;5.72;1.92;;;;;;;10.51;61.08;101872.00;5004149;28;20148;-57
2021/03/29 00:07:13;;;;;;;5.95;2.13;;;;;;;10.56;61.53;101873.94;4989348;28;20064;-56
2021/03/29 00:09:41;;;;;;;4.28;2.20;;;;;;;10.55;60.62;101871.34;5004275;28;20060;-54
2021/03/29 00:12:09;;;;;;;7.43;2.95;;;;;;;10.56;61.50;101868.84;5003755;28;20061;-57
2021/03/29 00:14:37;;;;;;;7.00;2.50;;;;;;;10.52;60.80;101871.19;5003929;28;20749;-54
2021/03/29 00:17:04;;;;;;;7.35;2.30;;;;;;;10.56;60.71;101873.09;5003513;28;20050;-57
2021/03/29 00:19:32;;;;;;;8.48;2.50;;;;;;;10.49;61.06;101868.47;5004233;28;20049;-56
2021/03/29 00:21:59;;;;;;;7.55;2.47;;;;;;;10.58;60.86;101869.75;5003578;28;20451;-57
2021/03/29 00:24:26;;;;;;;8.10;2.72;;;;;;;10.51;61.18;101870.31;5004068;28;20053;-56
2021/03/29 00:26:53;;;;;;;6.40;2.17;;;;;;;10.60;60.75;101864.72;5003014;28;20100;-57
2021/03/29 00:29:20;;;;;;;8.27;2.72;;;;;;;10.62;60.43;101866.53;5003834;28;20745;-56
2021/03/29 00:31:47;;;;;;;10.60;2.83;;;;;;;10.58;60.36;101869.75;5003530;28;20863;-49
2021/03/29 00:34:15;;;;;;;4.57;2.28;;;;;;;10.61;60.62;101864.78;4989691;28;20419;-54
2021/03/29 00:36:42;;;;;;;8.57;2.55;;;;;;;10.62;61.16;101857.97;5003461;28;20056;-56
2021/03/29 00:39:10;;;;;;;8.57;2.67;;;;;;;10.55;61.08;101868.78;5003005;28;20076;-56
2021/03/29 00:41:36;;;;;;;5.95;2.17;;;;;;;10.64;61.12;101859.81;5003853;28;20053;-56
2021/03/29 00:44:05;;;;;;;5.53;2.70;;;;;;;10.60;61.11;101855.34;5003202;28;20424;-53
2021/03/29 00:46:33;;;;;;;6.13;2.78;;;;;;;10.61;61.11;101861.34;5003014;28;20488;-54
2021/03/29 00:49:00;;;;;;;7.55;3.20;;;;;;;10.61;60.66;101858.78;4985305;28;20052;-56
2021/03/29 00:51:30;;;;;;;8.82;2.47;;;;;;;10.73;60.73;101863.59;5003434;28;20050;-57
2021/03/29 00:54:00;;;;;;;11.25;3.53;;;;;;;10.71;61.07;101866.06;5003012;28;20069;-55
2021/03/29 00:56:27;;;;;;;7.72;2.22;;;;;;;10.79;60.19;101866.41;5003274;28;20056;-53
2021/03/29 00:58:54;;;;;;;6.85;2.03;;;;;;;10.79;60.23;101864.72;5002531;28;20053;-55
2021/03/29 01:01:27;;;;;;;6.68;2.17;;;;;;;10.74;60.56;101866.22;5002939;28;20045;-57
2021/03/29 01:03:58;;;;;;;5.30;2.53;;;;;;;10.73;60.50;101868.72;5002422;28;20054;-56
2021/03/29 01:06:28;;;;;;;6.88;2.47;;;;;;;10.71;60.66;101876.31;5003260;28;20050;-54
2021/03/29 01:09:01;;;;;;;9.15;2.63;;;;;;;10.75;60.99;101867.09;5002376;28;20053;-55
2021/03/29 01:11:30;;;;;;;6.68;2.55;;;;;;;10.68;61.76;101874.50;5002983;28;20052;-54
2021/03/29 01:14:09;;;;;;;8.60;2.58;;;;;;;10.74;60.60;101876.47;5002408;28;20058;-56
2021/03/29 01:16:41;;;;;;;6.95;2.42;;;;;;;10.78;60.64;101880.03;5002853;28;20504;-52
2021/03/29 01:19:15;;;;;;;5.25;2.35;;;;;;;10.76;59.96;101874.81;5002217;28;20042;-57
2021/03/29 01:21:52;;;;;;;5.97;2.20;;;;;;;10.80;60.32;101870.72;5003164;28;20042;-50
2021/03/29 01:24:47;;;;;;;7.65;2.65;;;;;;;10.85;60.87;101866.66;4989658;28;20042;-53
2021/03/29 01:27:18;;;;;;;6.97;2.33;;;;;;;10.73;60.42;101864.47;4995834;28;20046;-54
2021/03/29 01:29:47;;;;;;;7.40;2.50;;;;;;;10.74;61.08;101870.47;5002890;28;20049;-55
2021/03/29 01:32:14;;;;;;;6.40;2.38;;;;;;;10.63;61.03;101873.44;4995797;28;20049;-57
2021/03/29 01:34:42;;;;;;;5.00;2.17;;;;;;;10.80;61.21;101866.47;5002698;28;20508;-56
2021/03/29 01:37:10;;;;;;;5.97;2.47;;;;;;;10.75;60.83;101861.97;5001616;28;20061;-55
2021/03/29 01:39:40;;;;;;;6.65;2.08;;;;;;;10.71;60.29;101854.13;5002811;28;20054;-55
2021/03/29 01:42:08;;;;;;;7.40;2.25;;;;;;;10.70;61.00;101859.19;5002131;28;20065;-56
2021/03/29 01:44:35;;;;;;;10.30;2.75;;;;;;;10.70;61.07;101856.63;5002466;28;20130;-53
2021/03/29 01:47:05;;;;;;;7.90;2.65;;;;;;;10.71;60.48;101854.13;5001618;28;20385;-56
2021/03/29 01:49:33;;;;;;;8.18;2.53;;;;;;;10.68;61.18;101856.56;5002525;28;20050;-54
2021/03/29 01:52:00;;;;;;;6.45;2.30;;;;;;;10.70;60.87;101865.19;5001563;28;20049;-56
2021/03/29 01:54:29;;;;;;;4.53;1.77;;;;;;;10.74;60.82;101861.09;4985338;28;20070;-56
2021/03/29 01:56:56;;;;;;;8.02;2.53;;;;;;;10.70;61.39;101856.63;5001634;28;20500;-55
2021/03/29 01:59:22;;;;;;;8.13;2.85;;;;;;;10.72;61.38;101857.56;5002423;28;20042;-56
2021/03/29 02:01:49;;;;;;;5.10;2.42;;;;;;;10.71;61.03;101863.50;4984544;28;20057;-55
2021/03/29 02:04:16;;;;;;;7.22;2.53;;;;;;;10.79;61.00;101861.28;5002915;28;20041;-55
2021/03/29 02:06:44;;;;;;;7.68;2.50;;;;;;;10.85;60.55;101869.22;5001942;28;20415;-50
2021/03/29 02:09:11;;;;;;;7.43;2.55;;;;;;;10.79;60.50;101868.97;5001902;28;20053;-51
2021/03/29 02:11:39;;;;;;;8.52;2.42;;;;;;;10.79;60.60;101859.59;5002042;28;20560;-54
2021/03/29 02:14:07;;;;;;;5.43;2.72;;;;;;;10.60;61.44;101867.28;5000884;28;20585;-55
2021/03/29 02:16:34;;;;;;;5.68;2.30;;;;;;;10.85;60.69;101854.72;5002013;28;20405;-53
2021/03/29 02:19:04;;;;;;;3.45;2.35;;;;;;;10.84;60.39;101854.66;5001845;28;20080;-54
2021/03/29 02:21:41;;;;;;;4.80;2.20;;;;;;;10.73;61.11;101851.66;5002434;28;20060;-56
2021/03/29 02:24:10;;;;;;;5.72;2.53;;;;;;;10.74;60.85;101849.97;5001590;28;20623;-56
2021/03/29 02:26:39;;;;;;;7.30;2.45;;;;;;;10.65;61.26;101837.63;5002254;28;20061;-53
2021/03/29 02:29:07;;;;;;;4.28;2.45;;;;;;;10.67;61.47;101846.25;5001332;28;20054;-56
2021/03/29 02:31:34;;;;;;;8.48;2.45;;;;;;;10.58;61.52;101833.03;5002403;28;20050;-51
2021/03/29 02:34:04;;;;;;;9.93;2.60;;;;;;;10.53;61.68;101839.63;5001585;28;20713;-54
2021/03/29 02:36:31;;;;;;;6.82;2.28;;;;;;;10.41;62.04;101839.97;5002085;28;20061;-56
2021/03/29 02:38:58;;;;;;;4.93;2.28;;;;;;;10.41;62.56;101838.31;5001280;28;20064;-57
2021/03/29 02:41:29;;;;;;;9.05;2.80;;;;;;;10.45;62.35;101840.19;4995368;28;20054;-55
2021/03/29 02:43:56;;;;;;;5.07;2.88;;;;;;;10.38;62.35;101842.41;5001365;28;20069;-56
2021/03/29 02:46:26;;;;;;;4.82;2.10;;;;;;;10.39;61.82;101851.81;4994834;28;20053;-54
2021/03/29 02:48:55;;;;;;;8.23;1.85;;;;;;;10.37;62.05;101846.66;5001344;28;20088;-54
2021/03/29 02:51:23;;;;;;;7.40;3.28;;;;;;;10.35;62.11;101855.06;5002247;28;20135;-57
2021/03/29 02:53:56;;;;;;;7.53;2.38;;;;;;;10.12;62.83;101846.28;5001559;28;20046;-55
2021/03/29 02:56:27;;;;;;;7.55;2.55;;;;;;;10.29;62.26;101849.66;5001762;28;20500;-50
2021/03/29 02:59:00;;;;;;;5.40;2.20;;;;;;;10.34;61.75;101854.19;5002189;28;20049;-53
2021/03/29 03:01:29;;;;;;;8.68;2.05;;;;;;;10.39;61.73;101857.81;5002128;28;20181;-57
2021/03/29 03:03:57;;;;;;;5.80;2.03;;;;;;;10.51;61.85;101851.50;5001111;28;20061;-56
2021/03/29 03:06:27;;;;;;;9.77;2.58;;;;;;;10.49;61.52;101855.66;5001614;28;20052;-56
2021/03/29 03:08:54;;;;;;;8.85;1.98;;;;;;;10.51;61.49;101857.50;5001359;28;20059;-55
2021/03/29 03:11:21;;;;;;;7.97;2.30;;;;;;;10.56;61.11;101862.84;5001699;28;20530;-54
2021/03/29 03:13:49;;;;;;;5.30;2.42;;;;;;;10.39;61.66;101862.94;5001757;28;20508;-53
2021/03/29 03:16:16;;;;;;;5.55;2.20;;;;;;;10.28;62.31;101856.47;5001828;28;20057;-56
2021/03/29 03:18:48;;;;;;;6.97;2.20;;;;;;;10.51;61.62;101859.19;5001899;28;20868;-54
2021/03/29 03:21:16;;;;;;;9.50;2.00;;;;;;;10.31;62.04;101855.75;4987148;28;20129;-54
2021/03/29 03:23:54;;;;;;;6.85;2.30;;;;;;;10.47;61.85;101854.75;5001603;28;20046;-52
2021/03/29 03:26:22;;;;;;;3.97;1.77;;;;;;;10.54;61.23;101854.19;5004200;28;20053;-54
2021/03/29 03:28:49;;;;;;;7.05;2.05;;;;;;;10.44;61.33;101855.47;5005164;28;20056;-52
2021/03/29 03:31:16;;;;;;;5.93;2.17;;;;;;;10.61;60.95;101861.34;5005148;28;20038;-53
2021/03/29 03:33:43;;;;;;;7.85;3.05;;;;;;;10.51;61.09;101859.19;5005465;28;20052;-54
2021/03/29 03:36:11;;;;;;;6.18;2.45;;;;;;;10.49;61.62;101863.34;5004741;28;20050;-55
2021/03/29 03:38:47;;;;;;;9.88;2.65;;;;;;;10.65;61.03;101866.69;5005259;28;20057;-50
2021/03/29 03:41:25;;;;;;;6.28;2.42;;;;;;;10.62;60.96;101865.66;4990432;28;20060;-54
2021/03/29 03:43:54;;;;;;;7.03;2.38;;;;;;;10.62;60.67;101847.72;5004555;28;20050;-56
2021/03/29 03:46:23;;;;;;;5.88;2.58;;;;;;;10.59;61.02;101857.84;5005004;28;20049;-55
2021/03/29 03:48:53;;;;;;;7.85;2.45;;;;;;;10.63;61.47;101867.41;5004311;28;20046;-56
2021/03/29 03:51:24;;;;;;;6.90;2.30;;;;;;;10.72;60.23;101857.56;4988238;28;20064;-55
2021/03/29 03:53:51;;;;;;;7.47;2.75;;;;;;;10.63;60.58;101860.63;5004064;28;20058;-54
2021/03/29 03:56:19;;;;;;;3.90;2.25;;;;;;;10.65;61.29;101864.13;5004955;28;20048;-54
2021/03/29 03:58:55;;;;;;;8.32;2.35;;;;;;;10.62;60.73;101861.41;5003603;28;20118;-55
2021/03/29 04:01:23;;;;;;;5.60;2.70;;;;;;;10.66;60.70;101859.88;4988496;28;20471;-52
2021/03/29 04:03:52;;;;;;;7.80;2.50;;;;;;;10.67;60.98;101862.47;5001800;28;20089;-52
2021/03/29 04:06:20;;;;;;;5.15;2.00;;;;;;;10.73;60.14;101856.78;5005078;28;20054;-54
2021/03/29 04:08:47;;;;;;;5.50;2.75;;;;;;;10.62;60.87;101863.09;5004975;28;20053;-55
2021/03/29 04:11:14;;;;;;;7.45;2.58;;;;;;;10.64;61.34;101861.50;4989822;28;20134;-56
2021/03/29 04:13:41;;;;;;;8.20;2.80;;;;;;;10.62;61.11;101871.66;5004833;28;20136;-53
2021/03/29 04:16:08;;;;;;;6.85;2.50;;;;;;;10.50;61.48;101862.56;5003542;28;20058;-52
2021/03/29 04:18:35;;;;;;;6.10;2.35;;;;;;;10.61;61.59;101863.91;5004439;28;20052;-57
2021/03/29 04:21:03;;;;;;;10.23;2.90;;;;;;;10.57;61.02;101864.59;5003719;28;20048;-53
2021/03/29 04:23:30;;;;;;;7.18;2.67;;;;;;;10.59;61.36;101862.97;5004442;28;20041;-57
2021/03/29 04:25:57;;;;;;;6.93;2.58;;;;;;;10.60;61.13;101860.47;5003624;28;20064;-53
2021/03/29 04:28:24;;;;;;;8.35;3.28;;;;;;;10.55;61.60;101863.66;5004589;28;20050;-56
2021/03/29 04:30:52;;;;;;;9.25;2.40;;;;;;;10.52;61.54;101855.81;5004040;28;20062;-56
2021/03/29 04:33:19;;;;;;;6.68;2.90;;;;;;;10.35;62.05;101855.97;5004307;28;20050;-53
2021/03/29 04:35:47;;;;;;;8.93;2.58;;;;;;;10.50;61.61;101854.88;5003452;28;20559;-54
2021/03/29 04:38:14;;;;;;;6.97;2.97;;;;;;;10.45;62.06;101853.00;5003188;28;20057;-50
2021/03/29 04:40:41;;;;;;;10.80;2.63;;;;;;;10.52;61.58;101851.56;5003780;28;20057;-48
2021/03/29 04:43:08;;;;;;;8.88;2.55;;;;;;;10.52;61.38;101853.25;5002945;28;20050;-49
2021/03/29 04:45:35;;;;;;;5.70;2.25;;;;;;;10.60;61.94;101860.47;5003545;28;20037;-51
2021/03/29 04:48:02;;;;;;;7.15;2.63;;;;;;;10.56;61.99;101857.72;5002364;28;20077;-46
2021/03/29 04:50:28;;;;;;;7.22;2.60;;;;;;;10.60;60.98;101857.91;5003519;28;20060;-53
2021/03/29 04:52:55;;;;;;;8.68;2.65;;;;;;;10.47;61.61;101862.44;5002864;28;20060;-47
2021/03/29 04:55:22;;;;;;;5.80;2.60;;;;;;;10.64;60.85;101866.63;5003211;28;20495;-48
2021/03/29 04:57:49;;;;;;;12.95;3.00;;;;;;;10.53;61.90;101867.81;5003321;28;20474;-50
2021/03/29 05:00:19;;;;;;;4.75;2.55;;;;;;;10.56;60.91;101863.72;4993914;28;20050;-47
2021/03/29 05:02:49;;;;;;;7.75;3.05;;;;;;;10.58;61.70;101861.22;5002961;28;20046;-48
2021/03/29 05:05:16;;;;;;;7.22;2.40;;;;;;;10.62;60.59;101858.84;4979516;28;20119;-52
2021/03/29 05:07:44;;;;;;;8.50;3.00;;;;;;;10.48;61.36;101870.16;5003390;28;20046;-52
2021/03/29 05:10:12;;;;;;;8.45;2.63;;;;;;;10.54;61.37;101864.44;4995160;28;20158;-48
2021/03/29 05:12:39;;;;;;;7.40;2.38;;;;;;;10.59;61.83;101873.22;4983271;28;20181;-51
2021/03/29 05:15:08;;;;;;;6.90;2.78;;;;;;;10.68;61.42;101871.06;4970032;28;20050;-48
2021/03/29 05:17:35;;;;;;;6.20;2.50;;;;;;;10.67;61.58;101876.97;4984376;28;20141;-51
2021/03/29 05:20:04;;;;;;;10.60;3.00;;;;;;;10.73;60.35;101872.16;5001242;28;20064;-51
2021/03/29 05:22:30;;;;;;;10.30;2.60;;;;;;;10.62;61.06;101879.34;4998554;28;20306;-47
2021/03/29 05:24:57;;;;;;;6.53;2.40;;;;;;;10.65;61.16;101884.63;4988098;28;20405;-50
2021/03/29 05:27:28;;;;;;;5.47;2.47;;;;;;;10.53;61.23;101880.63;4988474;28;20046;-53
2021/03/29 05:29:55;;;;;;;8.20;2.60;;;;;;;10.58;61.25;101887.69;4995635;28;20108;-49
2021/03/29 05:32:25;;;;;;;10.38;2.65;;;;;;;10.60;61.10;101893.78;4994779;28;20045;-50
2021/03/29 05:34:57;;;;;;;6.00;2.63;;;;;;;10.59;61.09;101888.59;4992083;28;20058;-52
2021/03/29 05:37:25;;;;;;;8.90;2.40;;;;;;;10.72;61.21;101890.88;4989503;28;20289;-48
2021/03/29 05:39:54;;;;;;;5.85;2.20;;;;;;;10.71;61.39;101889.13;4993126;28;20643;-52
2021/03/29 05:42:22;;;;;;;8.82;3.03;;;;;;;10.80;60.44;101891.22;4996928;28;20046;-49
2021/03/29 05:44:53;;;;;;;8.43;2.45;;;;;;;10.84;60.52;101883.72;4991612;28;20065;-49
2021/03/29 05:47:19;;;;;;;5.57;2.63;;;;;;;10.85;61.12;101897.41;4996923;28;20044;-48
2021/03/29 05:49:51;;;;;;;8.95;2.42;;;;;;;10.75;61.36;101892.69;4991931;28;20050;-47
2021/03/29 05:52:17;;;;;;;9.73;2.38;;;;;;;10.83;60.66;101892.22;4988118;28;20045;-53
2021/03/29 05:54:44;;;;;;;7.22;2.90;;;;;;;10.90;60.42;101893.38;4984919;28;20601;-52
2021/03/29 05:57:11;;;;;;;7.97;2.28;;;;;;;10.94;60.76;101901.25;4986823;28;20374;-51
2021/03/29 05:59:40;;;;;;;7.82;2.22;;;;;;;10.92;60.22;101900.31;4982943;28;20038;-49
2021/03/29 06:02:25;;;;;;;5.95;2.70;;;;;;;11.01;61.03;101901.53;4982174;28;20419;-48
2021/03/29 06:04:52;;;;;;;8.48;2.40;;;;;;;10.97;61.06;101900.53;4990313;28;20042;-54
2021/03/29 06:07:27;;;;;;;7.57;2.67;;;;;;;11.09;61.45;101906.19;5000847;28;20050;-50
2021/03/29 06:09:56;;;;;;;10.02;3.03;;;;;;;11.08;61.19;101903.53;5000580;28;20050;-54
2021/03/29 06:12:23;;;;;;;8.57;3.53;;;;;;;11.16;61.22;101904.75;5000873;28;20046;-54
2021/03/29 06:15:01;;;;;;;6.28;2.70;;;;;;;11.20;61.87;101904.09;4983700;28;20058;-50
2021/03/29 06:17:27;;;;;;;7.85;2.53;;;;;;;11.24;62.04;101911.09;4996219;28;20041;-50
2021/03/29 06:20:00;;;;;;;11.70;2.60;;;;;;;11.32;61.28;101908.84;4999245;28;20054;-51
2021/03/29 06:22:38;;;;;;;8.18;2.22;;;;;;;11.35;60.90;101912.41;4996574;28;20547;-48
2021/03/29 06:25:15;;;;;;;8.13;2.40;;;;;;;11.15;62.46;101906.44;4985073;28;20061;-50
2021/03/29 06:27:49;;;;;;;7.50;2.03;;;;;;;11.31;61.78;101912.22;4984724;28;20058;-53
2021/03/29 06:30:24;;;;;;;10.30;3.20;;;;;;;11.32;62.39;101919.09;4981992;28;20054;-55
2021/03/29 06:32:58;;;;;;;9.00;3.03;;;;;;;11.43;62.00;101915.31;4983103;28;20046;-53
2021/03/29 06:35:33;;;;;;;6.72;2.75;;;;;;;11.47;60.99;101910.38;4981286;28;20061;-51
2021/03/29 06:38:09;;;;;;;8.00;2.30;;;;;;;11.63;61.41;101916.13;4981997;28;20524;-51
2021/03/29 06:40:45;;;;;;;9.82;2.90;;;;;;;11.66;60.72;101921.38;4978696;28;20124;-52
2021/03/29 06:43:24;;;;;;;9.30;3.13;;;;;;;11.77;59.75;101920.13;4980883;28;20081;-55
2021/03/29 06:45:55;;;;;;;6.95;3.03;;;;;;;11.84;59.49;101924.75;4997218;28;20061;-54
2021/03/29 06:48:30;;;;;;;10.50;3.15;;;;;;;11.97;58.89;101921.84;4998983;28;20049;-49
2021/03/29 06:51:14;;;;;;;;;;;;;;;12.03;58.64;101920.34;5001168;28;20089;-52
2021/03/29 06:54:04;;;;;;;9.65;2.30;;;;;;;12.04;58.16;101924.66;5001289;28;19921;-50
2021/03/29 06:56:32;;;;;;;7.97;2.92;;;;;;;12.09;58.35;101918.00;5001236;28;20052;-56
2021/03/29 06:59:04;;;;;;;8.52;2.83;;;;;;;12.15;57.77;101916.53;5001026;28;20068;-52
2021/03/29 07:01:35;;;;;;;7.90;2.45;;;;;;;12.23;56.93;101920.28;4998042;28;20052;-53
2021/03/29 07:04:04;;;;;;;9.90;2.35;;;;;;;12.17;57.22;101911.47;4995824;28;20054;-47
2021/03/29 07:06:33;;;;;;;7.00;2.75;;;;;;;12.11;57.72;101911.22;4986985;28;20049;-50
2021/03/29 07:09:05;;;;;;;6.75;2.65;;;;;;;12.31;57.60;101912.00;4995214;28;20045;-49
2021/03/29 07:11:34;;;;;;;5.05;2.47;;;;;;;12.26;57.77;101911.84;5004346;28;20046;-55
2021/03/29 07:14:03;;;;;;;8.68;2.97;;;;;;;12.31;56.93;101909.44;5002906;28;20064;-54
2021/03/29 07:16:30;;;;;;;8.00;2.20;;;;;;;12.58;56.08;101920.75;5003662;28;20053;-54
2021/03/29 07:19:06;;;;;;;8.20;2.60;;;;;;;12.63;56.45;101918.34;4985896;28;20050;-52
2021/03/29 07:21:33;;;;;;;9.07;2.78;;;;;;;12.69;55.77;101919.44;4996324;28;20065;-53
2021/03/29 07:24:08;;;;;;;7.05;2.40;;;;;;;12.82;55.91;101920.78;5002396;28;20104;-54
2021/03/29 07:27:07;;;;;;;7.35;2.08;;;;;;;12.85;55.27;101912.28;5004143;28;20053;-50
2021/03/29 07:29:37;;;;;;;8.93;2.58;;;;;;;12.85;55.16;101917.44;4961412;28;20046;-52
2021/03/29 07:32:27;;;;;;;9.68;2.67;;;;;;;12.85;54.89;101923.47;5004065;28;20049;-51
2021/03/29 07:34:54;;;;;;;7.82;2.78;;;;;;;12.97;55.13;101915.31;5003215;28;20112;-49
2021/03/29 07:37:41;;;;;;;8.65;2.88;;;;;;;13.28;54.68;101919.88;5004820;28;20842;-53
2021/03/29 07:40:20;;;;;;;6.38;2.40;;;;;;;13.08;55.08;101920.81;4995441;28;20046;-52
2021/03/29 07:42:49;;;;;;;10.43;2.38;;;;;;;13.41;54.35;101922.03;5004220;28;20038;-52
2021/03/29 07:45:18;;;;;;;7.10;2.20;;;;;;;13.41;53.50;101922.03;4989338;28;20049;-47
2021/03/29 07:47:46;;;;;;;10.35;2.45;;;;;;;13.56;53.06;101913.06;4999727;28;20054;-51
2021/03/29 07:50:39;;;;;;;7.07;2.40;;;;;;;13.58;52.55;101921.72;4989346;28;20049;-53
2021/03/29 07:53:10;;;;;;;4.20;1.92;;;;;;;13.53;53.16;101926.69;5002563;28;20101;-52
2021/03/29 07:55:52;;;;;;;6.97;3.00;;;;;;;13.77;52.54;101929.19;5001193;28;20049;-49
2021/03/29 07:58:22;;;;;;;7.07;2.63;;;;;;;13.88;51.82;101929.56;4994249;28;20053;-54
2021/03/29 08:01:01;;;;;;;7.50;2.53;;;;;;;13.96;51.69;101939.28;4996618;28;20042;-56
2021/03/29 08:03:27;;;;;;;12.93;2.75;;;;;;;14.19;51.50;101929.72;5003682;28;20053;-56
2021/03/29 08:05:54;;;;;;;8.02;2.40;;;;;;;14.17;52.29;101931.34;5001989;28;20042;-54
2021/03/29 08:08:23;;;;;;;7.47;2.50;;;;;;;14.29;52.27;101935.13;4997430;28;20050;-49
2021/03/29 08:10:58;;;;;;;5.38;3.42;;;;;;;14.05;52.34;101938.72;5002902;28;20559;-49
2021/03/29 08:13:34;;;;;;;6.88;2.55;;;;;;;14.20;51.04;101944.34;5003318;28;20194;-49
2021/03/29 08:16:05;;;;;;;;;;;;;;;14.26;51.18;101939.34;5003632;28;20501;-50
2021/03/29 08:19:12;;;;;;;6.55;2.63;;;;;;;14.62;51.22;101935.31;5003415;28;19979;-53
2021/03/29 08:21:51;;;;;;;7.90;3.00;;;;;;;14.64;50.86;101951.66;5002973;28;20034;-50
2021/03/29 08:24:35;;;;;;;6.68;1.95;;;;;;;14.84;49.27;101953.13;4996443;28;21180;-50
2021/03/29 08:27:07;;;;;;;9.60;3.35;;;;;;;14.87;49.79;101949.75;5002218;28;20582;-50
2021/03/29 08:29:42;;;;;;;8.25;2.58;;;;;;;15.07;49.32;101945.13;5002684;28;20483;-46
2021/03/29 08:32:16;;;;;;;11.55;3.17;;;;;;;14.89;47.69;101948.09;4994517;28;20049;-48
2021/03/29 08:34:52;;;;;;;8.63;2.58;;;;;;;15.07;48.45;101946.03;4994058;28;20054;-50
2021/03/29 08:38:03;;;;;;;7.30;2.40;;;;;;;14.89;48.49;101954.13;4984588;28;20053;-49
2021/03/29 08:40:32;;;;;;;9.48;2.38;;;;;;;14.76;48.63;101955.50;4953312;28;20050;-50
2021/03/29 08:43:07;;;;;;;8.00;2.58;;;;;;;14.77;48.91;101957.22;4998186;28;20053;-50
2021/03/29 08:45:35;;;;;;;8.98;2.13;;;;;;;14.85;48.57;101954.00;4968724;28;20105;-52
2021/03/29 08:48:04;;;;;;;6.68;1.90;;;;;;;14.92;48.43;101961.94;4986251;28;20689;-48
2021/03/29 08:50:47;;;;;;;9.73;2.35;;;;;;;14.75;48.54;101952.88;4991966;28;20050;-50
2021/03/29 08:53:14;;;;;;;5.28;2.20;;;;;;;15.04;48.54;101961.44;4988265;28;20049;-49
2021/03/29 08:55:42;;;;;;;9.88;2.70;;;;;;;14.97;48.70;101954.34;5003541;28;20697;-50
2021/03/29 08:58:11;;;;;;;9.25;2.58;;;;;;;14.99;48.96;101950.09;5002743;28;20046;-48
2021/03/29 09:00:43;;;;;;;7.00;2.25;;;;;;;15.18;48.99;101956.66;5003148;28;20058;-49
2021/03/29 09:03:21;;;;;;;10.25;2.75;;;;;;;14.94;48.42;101956.84;5001663;28;20579;-48
2021/03/29 09:05:48;;;;;;;5.07;2.13;;;;;;;14.77;48.22;101958.94;4991905;28;20051;-45
2021/03/29 09:08:16;;;;;;;7.45;3.83;;;;;;;14.67;49.50;101965.53;4986225;28;20049;-47
2021/03/29 09:10:45;;;;;;;12.32;2.80;;;;;;;14.75;50.07;101966.66;4986943;28;20813;-48
2021/03/29 09:13:14;;;;;;;5.75;2.33;;;;;;;14.74;49.90;101977.78;5001942;28;20052;-43
2021/03/29 09:15:51;;;;;;;7.75;1.98;;;;;;;14.84;49.32;101971.19;5002192;28;20041;-47
2021/03/29 09:18:23;;;;;;;10.63;2.63;;;;;;;14.79;49.54;101965.03;4995356;28;20827;-51
2021/03/29 09:20:52;;;;;;;6.97;2.20;;;;;;;14.61;48.70;101962.78;5002089;28;20056;-50
2021/03/29 09:23:21;;;;;;;8.90;2.33;;;;;;;14.68;50.01;101962.13;4992968;28;20423;-50
2021/03/29 09:25:53;;;;;;;8.77;2.58;;;;;;;14.94;49.34;101968.03;4999068;28;21294;-45
2021/03/29 09:31:21;;;;;;;9.05;2.72;;;;;;;15.48;47.67;101964.31;4975856;28;20153;-48
2021/03/29 09:33:50;;;;;;;7.60;2.50;;;;;;;15.70;47.25;101965.78;4984252;28;20061;-48
2021/03/29 09:36:20;;;;;;;8.40;2.10;;;;;;;16.13;46.40;101966.81;4980796;28;20050;-43
2021/03/29 09:38:52;;;;;;;6.57;2.50;;;;;;;16.45;46.24;101959.78;4989379;28;20054;-49
2021/03/29 09:41:32;;;;;;;7.95;2.42;;;;;;;16.80;44.70;101963.16;4979937;28;20131;-46
2021/03/29 09:44:08;;;;;;;10.27;2.75;;;;;;;16.62;44.77;101954.97;4986216;28;20058;-50
2021/03/29 09:46:37;;;;;;;7.40;2.53;;;;;;;16.71;44.67;101956.03;4987793;28;20521;-53
2021/03/29 09:49:13;;;;;;;9.57;2.55;;;;;;;16.25;45.50;101955.03;4972374;28;20973;-46
2021/03/29 09:51:44;;;;;;;11.50;2.78;;;;;;;16.70;44.54;101954.31;4989697;28;20432;-44
2021/03/29 09:54:24;;;;;;;7.85;3.70;;;;;;;16.63;45.43;101959.31;4990786;28;20049;-49
2021/03/29 09:57:10;;;;;;;7.38;2.30;;;;;;;16.85;43.15;101955.50;4988651;28;20046;-45
2021/03/29 09:59:40;;;;;;;9.75;3.65;;;;;;;17.39;43.45;101950.50;4985635;28;20096;-49
2021/03/29 10:02:16;;;;;;;9.88;3.42;;;;;;;17.50;42.22;101953.25;4989683;28;20073;-47
2021/03/29 10:04:46;;;;;;;8.68;2.70;;;;;;;17.98;40.79;101941.97;4987048;28;20169;-46
2021/03/29 10:07:18;;;;;;;11.65;2.72;;;;;;;18.49;41.40;101953.97;4982715;28;20045;-49
2021/03/29 10:09:47;;;;;;;13.43;2.63;;;;;;;19.20;38.77;101945.31;4987665;28;20061;-50
2021/03/29 10:12:26;;;;;;;10.25;2.60;;;;;;;19.19;38.65;101946.19;4984969;28;20161;-47
2021/03/29 10:15:11;;;;;;;9.05;3.00;;;;;;;21.09;36.71;101950.94;4985945;28;20146;-48
2021/03/29 10:17:39;;;;;;;8.52;2.63;;;;;;;21.95;34.03;101953.59;4986687;28;20854;-48
2021/03/29 10:20:13;;;;;;;11.93;3.15;;;;;;;24.89;29.85;101958.53;4988783;28;20043;-53
2021/03/29 10:22:41;;;;;;;7.72;2.97;;;;;;;26.50;27.73;101955.03;4987010;28;20047;-48
2021/03/29 10:25:19;;;;;;;6.90;2.60;;;;;;;26.35;28.06;101951.81;4989863;28;20060;-57
2021/03/29 10:27:53;;;;;;;8.45;2.70;;;;;;;25.64;28.05;101951.31;5012883;28;20042;-52
2021/03/29 10:30:20;;;;;;;8.05;2.67;;;;;;;23.70;30.29;101938.88;4981994;28;20145;-54
2021/03/29 10:32:54;;;;;;;8.18;3.17;;;;;;;21.00;33.75;101925.72;5000597;28;20049;-55
2021/03/29 10:35:22;;;;;;;9.80;2.85;;;;;;;20.85;35.18;101929.16;4988414;28;20073;-49
2021/03/29 10:37:50;;;;;;;5.20;2.42;;;;;;;19.87;36.19;101925.13;5005251;28;20061;-46
2021/03/29 10:40:17;;;;;;;9.05;3.08;;;;;;;19.93;36.65;101927.78;5003996;28;20053;-52
2021/03/29 10:42:44;;;;;;;8.52;3.20;;;;;;;19.90;36.24;101922.56;5005085;28;20053;-49
2021/03/29 10:45:14;;;;;;;6.35;2.53;;;;;;;20.07;37.33;101927.88;5004222;28;20533;-53
2021/03/29 10:47:42;;;;;;;5.70;2.72;;;;;;;21.60;33.90;101936.25;5005268;28;20046;-52
2021/03/29 10:50:12;;;;;;;10.55;3.03;;;;;;;22.77;31.98;101945.56;5003861;28;20060;-49
2021/03/29 10:52:39;;;;;;;8.55;2.80;;;;;;;22.92;32.19;101943.78;5002352;28;20053;-51
2021/03/29 10:55:07;;;;;;;7.35;2.72;;;;;;;21.45;33.25;101936.25;5004775;28;20054;-46
2021/03/29 10:57:35;;;;;;;12.70;4.63;;;;;;;21.18;34.09;101934.44;5004584;28;20077;-50
2021/03/29 11:00:04;;;;;;;7.45;3.10;;;;;;;21.04;35.56;101939.63;5004154;28;20038;-52
2021/03/29 11:02:30;;;;;;;8.35;2.70;;;;;;;20.78;34.99;101932.59;4995491;28;20050;-49
2021/03/29 11:04:57;;;;;;;8.68;3.30;;;;;;;20.02;36.10;101932.19;4988053;28;20073;-52
2021/03/29 11:07:24;;;;;;;10.70;2.78;;;;;;;19.38;42.15;101931.66;4990083;28;20530;-49
2021/03/29 11:09:51;;;;;;;8.90;3.22;;;;;;;19.40;40.32;101927.31;4995161;28;20049;-48
2021/03/29 11:12:18;;;;;;;11.73;3.00;;;;;;;18.52;41.46;101923.72;4991115;28;20046;-49
2021/03/29 11:14:45;;;;;;;9.82;3.20;;;;;;;18.19;43.12;101923.28;4987215;28;20104;-53
2021/03/29 11:17:12;;;;;;;7.75;2.83;;;;;;;18.25;47.89;101929.41;4986192;28;20485;-46
2021/03/29 11:19:38;;;;;;;13.95;3.65;;;;;;;17.21;49.70;101919.09;4986869;28;20050;-46
2021/03/29 11:22:08;;;;;;;11.20;3.30;;;;;;;16.72;47.88;101916.44;4967998;28;20054;-46
2021/03/29 11:24:38;;;;;;;8.13;2.80;;;;;;;16.85;47.99;101916.69;4986732;28;20054;-51
2021/03/29 11:27:05;;;;;;;9.35;3.40;;;;;;;16.81;46.60;101918.31;4996222;28;20057;-52
2021/03/29 11:29:31;;;;;;;10.90;3.25;;;;;;;17.10;47.43;101913.72;5004398;28;20440;-49
2021/03/29 11:31:58;;;;;;;9.50;3.10;;;;;;;17.43;45.93;101907.41;5005019;28;20053;-47
2021/03/29 11:34:24;;;;;;;9.63;3.33;;;;;;;17.80;44.54;101916.69;5003356;28;20054;-48
2021/03/29 11:36:51;;;;;;;9.13;3.30;;;;;;;18.04;43.85;101924.81;5001848;28;20050;-51
2021/03/29 11:39:17;;;;;;;10.55;3.30;;;;;;;18.42;42.38;101929.66;5003821;28;20049;-51
2021/03/29 11:41:44;;;;;;;7.00;3.50;;;;;;;18.92;42.71;101928.56;5004500;28;20045;-49
2021/03/29 11:44:11;;;;;;;8.45;3.03;;;;;;;19.03;40.85;101925.22;5003723;28;20053;-53